sensor_id;sensor_type;location;lat;lon;timestamp;P1;durP1;ratioP1;P2;durP2;ratioP2
68858;SDS011;55864;49.238;8.092;2022-11-28T00:00:57;17.80;;;8.73;;
68858;SDS011;55864;49.238;8.092;2022-11-28T00:02:57;17.70;;;7.73;;
68858;SDS011;55864;49.238;8.092;2022-11-28T00:04:58;15.13;;;7.33;;
68858;SDS011;55864;49.238;8.092;2022-11-28T00:06:58;14.47;;;7.53;;
68858;SDS011;55864;49.238;8.092;2022-11-28T00:08:59;17.23;;;7.77;;
68858;SDS011;55864;49.238;8.092;2022-11-28T00:11:03;17.10;;;8.63;;
68858;SDS011;55864;49.238;8.092;2022-11-28T00:13:04;17.77;;;7.70;;
68858;SDS011;55864;49.238;8.092;2022-11-28T00:15:04;17.10;;;7.70;;
68858;SDS011;55864;49.238;8.092;2022-11-28T00:17:05;14.60;;;7.73;;
68858;SDS011;55864;49.238;8.092;2022-11-28T00:19:06;14.57;;;6.87;;
68858;SDS011;55864;49.238;8.092;2022-11-28T00:21:09;15.17;;;7.47;;
68858;SDS011;55864;49.238;8.092;2022-11-28T00:23:11;13.97;;;7.13;;
68858;SDS011;55864;49.238;8.092;2022-11-28T00:25:12;14.90;;;6.87;;
68858;SDS011;55864;49.238;8.092;2022-11-28T00:27:14;13.20;;;6.87;;
68858;SDS011;55864;49.238;8.092;2022-11-28T00:29:14;14.80;;;6.80;;
68858;SDS011;55864;49.238;8.092;2022-11-28T00:31:15;14.93;;;7.27;;
68858;SDS011;55864;49.238;8.092;2022-11-28T00:33:17;14.27;;;6.77;;
68858;SDS011;55864;49.238;8.092;2022-11-28T00:35:18;15.57;;;7.07;;
68858;SDS011;55864;49.238;8.092;2022-11-28T00:37:18;21.80;;;8.33;;
68858;SDS011;55864;49.238;8.092;2022-11-28T00:39:18;20.93;;;9.20;;
68858;SDS011;55864;49.238;8.092;2022-11-28T00:41:20;22.03;;;8.40;;
68858;SDS011;55864;49.238;8.092;2022-11-28T00:43:23;17.77;;;7.30;;
68858;SDS011;55864;49.238;8.092;2022-11-28T00:45:24;19.33;;;8.20;;
68858;SDS011;55864;49.238;8.092;2022-11-28T00:47:24;16.33;;;7.37;;
68858;SDS011;55864;49.238;8.092;2022-11-28T00:49:25;20.90;;;8.93;;
68858;SDS011;55864;49.238;8.092;2022-11-28T00:51:26;20.60;;;9.20;;
68858;SDS011;55864;49.238;8.092;2022-11-28T00:53:29;21.80;;;8.32;;
68858;SDS011;55864;49.238;8.092;2022-11-28T00:55:29;17.40;;;7.67;;
68858;SDS011;55864;49.238;8.092;2022-11-28T00:57:30;20.80;;;8.70;;
68858;SDS011;55864;49.238;8.092;2022-11-28T00:59:32;22.03;;;9.00;;
68858;SDS011;55864;49.238;8.092;2022-11-28T01:01:33;16.00;;;7.53;;
68858;SDS011;55864;49.238;8.092;2022-11-28T01:03:36;16.42;;;7.07;;
68858;SDS011;55864;49.238;8.092;2022-11-28T01:05:38;16.60;;;6.87;;
68858;SDS011;55864;49.238;8.092;2022-11-28T01:07:39;16.80;;;7.72;;
68858;SDS011;55864;49.238;8.092;2022-11-28T01:09:40;13.80;;;6.60;;
68858;SDS011;55864;49.238;8.092;2022-11-28T01:11:41;16.73;;;7.27;;
68858;SDS011;55864;49.238;8.092;2022-11-28T01:13:42;15.37;;;6.43;;
68858;SDS011;55864;49.238;8.092;2022-11-28T01:15:44;23.37;;;8.97;;
68858;SDS011;55864;49.238;8.092;2022-11-28T01:17:45;18.07;;;8.17;;
68858;SDS011;55864;49.238;8.092;2022-11-28T01:19:45;14.10;;;6.70;;
68858;SDS011;55864;49.238;8.092;2022-11-28T01:21:46;16.43;;;7.30;;
68858;SDS011;55864;49.238;8.092;2022-11-28T01:23:47;16.47;;;7.50;;
68858;SDS011;55864;49.238;8.092;2022-11-28T01:25:47;15.60;;;7.33;;
68858;SDS011;55864;49.238;8.092;2022-11-28T01:27:48;20.07;;;8.23;;
68858;SDS011;55864;49.238;8.092;2022-11-28T01:29:48;15.97;;;7.47;;
68858;SDS011;55864;49.238;8.092;2022-11-28T01:31:50;19.63;;;7.70;;
68858;SDS011;55864;49.238;8.092;2022-11-28T01:33:51;16.37;;;7.77;;
68858;SDS011;55864;49.238;8.092;2022-11-28T01:35:52;15.07;;;7.50;;
68858;SDS011;55864;49.238;8.092;2022-11-28T01:37:54;15.50;;;7.03;;
68858;SDS011;55864;49.238;8.092;2022-11-28T01:39:54;15.73;;;7.73;;
68858;SDS011;55864;49.238;8.092;2022-11-28T01:41:55;15.13;;;6.80;;
68858;SDS011;55864;49.238;8.092;2022-11-28T01:43:56;14.43;;;7.20;;
68858;SDS011;55864;49.238;8.092;2022-11-28T01:45:58;13.25;;;6.55;;
68858;SDS011;55864;49.238;8.092;2022-11-28T01:48:01;13.40;;;7.07;;
68858;SDS011;55864;49.238;8.092;2022-11-28T01:50:03;15.63;;;7.68;;
68858;SDS011;55864;49.238;8.092;2022-11-28T01:52:07;14.20;;;7.27;;
68858;SDS011;55864;49.238;8.092;2022-11-28T01:54:11;14.93;;;7.57;;
68858;SDS011;55864;49.238;8.092;2022-11-28T01:56:12;16.83;;;7.37;;
68858;SDS011;55864;49.238;8.092;2022-11-28T01:58:16;16.90;;;7.80;;
68858;SDS011;55864;49.238;8.092;2022-11-28T02:00:18;17.10;;;7.30;;
68858;SDS011;55864;49.238;8.092;2022-11-28T02:02:22;15.90;;;7.40;;
68858;SDS011;55864;49.238;8.092;2022-11-28T02:04:29;18.50;;;7.80;;
68858;SDS011;55864;49.238;8.092;2022-11-28T02:06:30;15.60;;;7.23;;
68858;SDS011;55864;49.238;8.092;2022-11-28T02:08:31;16.20;;;7.80;;
68858;SDS011;55864;49.238;8.092;2022-11-28T02:10:39;15.00;;;7.30;;
68858;SDS011;55864;49.238;8.092;2022-11-28T02:12:58;16.17;;;7.50;;
68858;SDS011;55864;49.238;8.092;2022-11-28T02:15:15;18.47;;;7.20;;
68858;SDS011;55864;49.238;8.092;2022-11-28T02:17:27;17.10;;;7.37;;
68858;SDS011;55864;49.238;8.092;2022-11-28T02:22:15;17.87;;;7.77;;
68858;SDS011;55864;49.238;8.092;2022-11-28T02:24:34;14.30;;;7.13;;
68858;SDS011;55864;49.238;8.092;2022-11-28T02:26:53;20.90;;;7.73;;
68858;SDS011;55864;49.238;8.092;2022-11-28T02:31:52;16.97;;;7.00;;
68858;SDS011;55864;49.238;8.092;2022-11-28T02:34:07;15.23;;;7.43;;
68858;SDS011;55864;49.238;8.092;2022-11-28T02:36:12;13.73;;;7.10;;
68858;SDS011;55864;49.238;8.092;2022-11-28T02:38:19;14.60;;;7.30;;
68858;SDS011;55864;49.238;8.092;2022-11-28T02:40:27;15.33;;;6.57;;
68858;SDS011;55864;49.238;8.092;2022-11-28T02:42:38;13.13;;;6.67;;
68858;SDS011;55864;49.238;8.092;2022-11-28T02:44:50;14.47;;;6.77;;
68858;SDS011;55864;49.238;8.092;2022-11-28T02:46:56;14.20;;;6.83;;
68858;SDS011;55864;49.238;8.092;2022-11-28T02:49:02;11.70;;;6.57;;
68858;SDS011;55864;49.238;8.092;2022-11-28T02:51:06;14.95;;;6.85;;
68858;SDS011;55864;49.238;8.092;2022-11-28T02:53:12;13.70;;;7.10;;
68858;SDS011;55864;49.238;8.092;2022-11-28T02:55:15;15.33;;;7.13;;
68858;SDS011;55864;49.238;8.092;2022-11-28T02:57:16;14.63;;;6.90;;
68858;SDS011;55864;49.238;8.092;2022-11-28T02:59:20;15.73;;;6.80;;
68858;SDS011;55864;49.238;8.092;2022-11-28T03:01:31;12.90;;;6.75;;
68858;SDS011;55864;49.238;8.092;2022-11-28T03:03:43;11.93;;;6.50;;
68858;SDS011;55864;49.238;8.092;2022-11-28T03:05:54;15.27;;;7.37;;
68858;SDS011;55864;49.238;8.092;2022-11-28T03:07:59;15.13;;;7.00;;
68858;SDS011;55864;49.238;8.092;2022-11-28T03:10:13;14.37;;;7.07;;
68858;SDS011;55864;49.238;8.092;2022-11-28T03:12:24;17.00;;;6.57;;
68858;SDS011;55864;49.238;8.092;2022-11-28T03:14:33;14.87;;;7.23;;
68858;SDS011;55864;49.238;8.092;2022-11-28T03:16:49;13.67;;;6.60;;
68858;SDS011;55864;49.238;8.092;2022-11-28T03:18:59;14.17;;;6.70;;
68858;SDS011;55864;49.238;8.092;2022-11-28T03:21:10;14.70;;;7.53;;
68858;SDS011;55864;49.238;8.092;2022-11-28T03:23:16;11.87;;;6.47;;
68858;SDS011;55864;49.238;8.092;2022-11-28T03:25:23;14.63;;;7.20;;
68858;SDS011;55864;49.238;8.092;2022-11-28T03:27:28;12.67;;;6.73;;
68858;SDS011;55864;49.238;8.092;2022-11-28T03:29:36;11.60;;;6.13;;
68858;SDS011;55864;49.238;8.092;2022-11-28T03:31:40;12.17;;;6.40;;
68858;SDS011;55864;49.238;8.092;2022-11-28T03:33:46;12.07;;;6.20;;
68858;SDS011;55864;49.238;8.092;2022-11-28T03:35:52;13.60;;;6.83;;
68858;SDS011;55864;49.238;8.092;2022-11-28T03:38:00;11.97;;;6.13;;
68858;SDS011;55864;49.238;8.092;2022-11-28T03:40:07;13.23;;;6.60;;
68858;SDS011;55864;49.238;8.092;2022-11-28T03:42:12;13.97;;;6.20;;
68858;SDS011;55864;49.238;8.092;2022-11-28T03:44:17;11.67;;;5.93;;
68858;SDS011;55864;49.238;8.092;2022-11-28T03:46:22;13.33;;;6.13;;
68858;SDS011;55864;49.238;8.092;2022-11-28T03:48:26;11.93;;;5.80;;
68858;SDS011;55864;49.238;8.092;2022-11-28T03:50:31;12.90;;;6.47;;
68858;SDS011;55864;49.238;8.092;2022-11-28T03:52:39;12.90;;;6.27;;
68858;SDS011;55864;49.238;8.092;2022-11-28T03:54:45;14.00;;;6.20;;
68858;SDS011;55864;49.238;8.092;2022-11-28T03:56:51;13.50;;;6.47;;
68858;SDS011;55864;49.238;8.092;2022-11-28T03:58:58;12.67;;;6.47;;
68858;SDS011;55864;49.238;8.092;2022-11-28T04:01:06;12.07;;;6.03;;
68858;SDS011;55864;49.238;8.092;2022-11-28T04:03:13;12.37;;;6.63;;
68858;SDS011;55864;49.238;8.092;2022-11-28T04:05:24;13.40;;;7.00;;
68858;SDS011;55864;49.238;8.092;2022-11-28T04:07:33;12.33;;;6.30;;
68858;SDS011;55864;49.238;8.092;2022-11-28T04:09:41;12.83;;;6.50;;
68858;SDS011;55864;49.238;8.092;2022-11-28T04:11:46;13.57;;;6.60;;
68858;SDS011;55864;49.238;8.092;2022-11-28T04:13:51;11.63;;;6.00;;
68858;SDS011;55864;49.238;8.092;2022-11-28T04:15:56;15.30;;;6.50;;
68858;SDS011;55864;49.238;8.092;2022-11-28T04:18:05;12.40;;;6.10;;
68858;SDS011;55864;49.238;8.092;2022-11-28T04:20:18;12.43;;;5.93;;
68858;SDS011;55864;49.238;8.092;2022-11-28T04:22:27;10.97;;;5.93;;
68858;SDS011;55864;49.238;8.092;2022-11-28T04:24:35;12.63;;;6.57;;
68858;SDS011;55864;49.238;8.092;2022-11-28T04:26:40;14.00;;;6.70;;
68858;SDS011;55864;49.238;8.092;2022-11-28T04:28:44;11.83;;;5.87;;
68858;SDS011;55864;49.238;8.092;2022-11-28T04:30:47;12.60;;;6.88;;
68858;SDS011;55864;49.238;8.092;2022-11-28T04:32:51;11.63;;;5.93;;
68858;SDS011;55864;49.238;8.092;2022-11-28T04:34:58;12.20;;;6.47;;
68858;SDS011;55864;49.238;8.092;2022-11-28T04:37:02;14.17;;;6.50;;
68858;SDS011;55864;49.238;8.092;2022-11-28T04:39:08;12.50;;;6.22;;
68858;SDS011;55864;49.238;8.092;2022-11-28T04:41:15;12.97;;;6.10;;
68858;SDS011;55864;49.238;8.092;2022-11-28T04:43:21;11.77;;;6.00;;
68858;SDS011;55864;49.238;8.092;2022-11-28T04:45:27;13.77;;;6.37;;
68858;SDS011;55864;49.238;8.092;2022-11-28T04:47:31;13.43;;;6.13;;
68858;SDS011;55864;49.238;8.092;2022-11-28T04:49:31;11.90;;;6.13;;
68858;SDS011;55864;49.238;8.092;2022-11-28T04:51:34;11.90;;;5.93;;
68858;SDS011;55864;49.238;8.092;2022-11-28T04:53:42;12.03;;;6.20;;
68858;SDS011;55864;49.238;8.092;2022-11-28T04:55:50;14.10;;;7.13;;
68858;SDS011;55864;49.238;8.092;2022-11-28T04:57:57;16.27;;;8.27;;
68858;SDS011;55864;49.238;8.092;2022-11-28T05:00:07;15.43;;;7.87;;
68858;SDS011;55864;49.238;8.092;2022-11-28T05:02:10;13.37;;;6.30;;
68858;SDS011;55864;49.238;8.092;2022-11-28T05:04:14;13.38;;;7.28;;
68858;SDS011;55864;49.238;8.092;2022-11-28T05:06:21;11.97;;;6.73;;
68858;SDS011;55864;49.238;8.092;2022-11-28T05:08:24;10.87;;;6.07;;
68858;SDS011;55864;49.238;8.092;2022-11-28T05:10:24;12.10;;;6.80;;
68858;SDS011;55864;49.238;8.092;2022-11-28T05:12:25;14.60;;;6.77;;
68858;SDS011;55864;49.238;8.092;2022-11-28T05:14:27;13.80;;;7.00;;
68858;SDS011;55864;49.238;8.092;2022-11-28T05:16:27;11.77;;;6.57;;
68858;SDS011;55864;49.238;8.092;2022-11-28T05:18:28;11.63;;;6.30;;
68858;SDS011;55864;49.238;8.092;2022-11-28T05:20:28;12.00;;;6.67;;
68858;SDS011;55864;49.238;8.092;2022-11-28T05:22:29;13.30;;;6.97;;
68858;SDS011;55864;49.238;8.092;2022-11-28T05:24:30;12.43;;;6.80;;
68858;SDS011;55864;49.238;8.092;2022-11-28T05:26:30;12.90;;;6.33;;
68858;SDS011;55864;49.238;8.092;2022-11-28T05:28:31;12.80;;;6.90;;
68858;SDS011;55864;49.238;8.092;2022-11-28T05:30:32;12.97;;;6.17;;
68858;SDS011;55864;49.238;8.092;2022-11-28T05:32:33;12.90;;;6.73;;
68858;SDS011;55864;49.238;8.092;2022-11-28T05:34:34;13.50;;;7.27;;
68858;SDS011;55864;49.238;8.092;2022-11-28T05:36:34;12.67;;;7.20;;
68858;SDS011;55864;49.238;8.092;2022-11-28T05:38:35;12.97;;;6.93;;
68858;SDS011;55864;49.238;8.092;2022-11-28T05:40:35;11.87;;;6.70;;
68858;SDS011;55864;49.238;8.092;2022-11-28T05:42:36;12.03;;;6.27;;
68858;SDS011;55864;49.238;8.092;2022-11-28T05:44:36;12.70;;;6.30;;
68858;SDS011;55864;49.238;8.092;2022-11-28T05:46:38;13.33;;;6.50;;
68858;SDS011;55864;49.238;8.092;2022-11-28T05:48:39;15.47;;;8.27;;
68858;SDS011;55864;49.238;8.092;2022-11-28T05:50:40;16.67;;;8.97;;
68858;SDS011;55864;49.238;8.092;2022-11-28T05:52:41;23.23;;;12.93;;
68858;SDS011;55864;49.238;8.092;2022-11-28T05:54:41;19.73;;;10.63;;
68858;SDS011;55864;49.238;8.092;2022-11-28T05:56:42;15.77;;;9.17;;
68858;SDS011;55864;49.238;8.092;2022-11-28T05:58:43;16.90;;;9.00;;
68858;SDS011;55864;49.238;8.092;2022-11-28T06:00:44;15.60;;;8.53;;
68858;SDS011;55864;49.238;8.092;2022-11-28T06:02:45;14.13;;;7.37;;
68858;SDS011;55864;49.238;8.092;2022-11-28T06:04:46;15.07;;;6.87;;
68858;SDS011;55864;49.238;8.092;2022-11-28T06:06:48;15.70;;;7.50;;
68858;SDS011;55864;49.238;8.092;2022-11-28T06:08:49;15.73;;;7.47;;
68858;SDS011;55864;49.238;8.092;2022-11-28T06:10:54;13.83;;;7.70;;
68858;SDS011;55864;49.238;8.092;2022-11-28T06:12:55;22.27;;;14.03;;
68858;SDS011;55864;49.238;8.092;2022-11-28T06:14:56;17.97;;;10.60;;
68858;SDS011;55864;49.238;8.092;2022-11-28T06:16:56;15.30;;;7.87;;
68858;SDS011;55864;49.238;8.092;2022-11-28T06:18:59;15.13;;;8.03;;
68858;SDS011;55864;49.238;8.092;2022-11-28T06:21:01;13.63;;;7.93;;
68858;SDS011;55864;49.238;8.092;2022-11-28T06:23:01;16.27;;;9.10;;
68858;SDS011;55864;49.238;8.092;2022-11-28T06:25:02;15.43;;;9.47;;
68858;SDS011;55864;49.238;8.092;2022-11-28T06:27:03;17.90;;;11.17;;
68858;SDS011;55864;49.238;8.092;2022-11-28T06:29:03;17.33;;;10.27;;
68858;SDS011;55864;49.238;8.092;2022-11-28T06:31:07;14.97;;;8.50;;
68858;SDS011;55864;49.238;8.092;2022-11-28T06:33:09;14.63;;;8.20;;
68858;SDS011;55864;49.238;8.092;2022-11-28T06:35:11;15.93;;;8.33;;
68858;SDS011;55864;49.238;8.092;2022-11-28T06:37:11;16.97;;;9.17;;
68858;SDS011;55864;49.238;8.092;2022-11-28T06:39:12;16.93;;;9.07;;
68858;SDS011;55864;49.238;8.092;2022-11-28T06:41:14;18.73;;;8.37;;
68858;SDS011;55864;49.238;8.092;2022-11-28T06:43:16;17.65;;;8.50;;
68858;SDS011;55864;49.238;8.092;2022-11-28T06:45:17;15.90;;;7.90;;
68858;SDS011;55864;49.238;8.092;2022-11-28T06:47:17;15.07;;;7.60;;
68858;SDS011;55864;49.238;8.092;2022-11-28T06:49:18;13.50;;;7.17;;
68858;SDS011;55864;49.238;8.092;2022-11-28T06:51:20;14.87;;;8.33;;
68858;SDS011;55864;49.238;8.092;2022-11-28T06:53:21;34.43;;;16.20;;
68858;SDS011;55864;49.238;8.092;2022-11-28T06:55:21;37.47;;;16.53;;
68858;SDS011;55864;49.238;8.092;2022-11-28T06:57:22;23.90;;;10.87;;
68858;SDS011;55864;49.238;8.092;2022-11-28T06:59:22;16.07;;;8.87;;
68858;SDS011;55864;49.238;8.092;2022-11-28T07:01:23;14.37;;;6.97;;
68858;SDS011;55864;49.238;8.092;2022-11-28T07:03:25;13.57;;;7.27;;
68858;SDS011;55864;49.238;8.092;2022-11-28T07:05:26;12.37;;;7.20;;
68858;SDS011;55864;49.238;8.092;2022-11-28T07:07:28;11.80;;;6.23;;
68858;SDS011;55864;49.238;8.092;2022-11-28T07:09:28;12.50;;;6.30;;
68858;SDS011;55864;49.238;8.092;2022-11-28T07:11:30;14.80;;;7.33;;
68858;SDS011;55864;49.238;8.092;2022-11-28T07:13:32;14.37;;;7.00;;
68858;SDS011;55864;49.238;8.092;2022-11-28T07:15:32;14.13;;;7.23;;
68858;SDS011;55864;49.238;8.092;2022-11-28T07:17:33;13.40;;;6.70;;
68858;SDS011;55864;49.238;8.092;2022-11-28T07:19:34;15.20;;;6.80;;
68858;SDS011;55864;49.238;8.092;2022-11-28T07:21:34;16.17;;;7.13;;
68858;SDS011;55864;49.238;8.092;2022-11-28T07:23:36;13.77;;;6.67;;
68858;SDS011;55864;49.238;8.092;2022-11-28T07:25:36;15.93;;;7.33;;
68858;SDS011;55864;49.238;8.092;2022-11-28T07:27:37;15.77;;;6.50;;
68858;SDS011;55864;49.238;8.092;2022-11-28T07:29:37;13.73;;;6.50;;
68858;SDS011;55864;49.238;8.092;2022-11-28T07:31:38;14.53;;;6.43;;
68858;SDS011;55864;49.238;8.092;2022-11-28T07:33:39;14.50;;;6.97;;
68858;SDS011;55864;49.238;8.092;2022-11-28T07:35:41;13.80;;;7.38;;
68858;SDS011;55864;49.238;8.092;2022-11-28T07:37:42;13.73;;;7.03;;
68858;SDS011;55864;49.238;8.092;2022-11-28T07:39:43;15.30;;;7.60;;
68858;SDS011;55864;49.238;8.092;2022-11-28T07:41:44;11.57;;;6.40;;
68858;SDS011;55864;49.238;8.092;2022-11-28T07:43:45;12.27;;;6.50;;
68858;SDS011;55864;49.238;8.092;2022-11-28T07:45:46;12.03;;;6.50;;
68858;SDS011;55864;49.238;8.092;2022-11-28T07:47:47;12.87;;;6.83;;
68858;SDS011;55864;49.238;8.092;2022-11-28T07:49:47;11.70;;;6.27;;
68858;SDS011;55864;49.238;8.092;2022-11-28T07:51:48;11.27;;;6.23;;
68858;SDS011;55864;49.238;8.092;2022-11-28T07:53:48;13.63;;;6.60;;
68858;SDS011;55864;49.238;8.092;2022-11-28T07:55:50;14.17;;;6.77;;
68858;SDS011;55864;49.238;8.092;2022-11-28T07:57:51;10.83;;;6.10;;
68858;SDS011;55864;49.238;8.092;2022-11-28T07:59:51;11.33;;;5.77;;
68858;SDS011;55864;49.238;8.092;2022-11-28T08:01:52;11.27;;;5.40;;
68858;SDS011;55864;49.238;8.092;2022-11-28T08:03:53;19.17;;;6.03;;
68858;SDS011;55864;49.238;8.092;2022-11-28T08:05:58;16.27;;;6.70;;
68858;SDS011;55864;49.238;8.092;2022-11-28T08:07:59;13.67;;;6.53;;
68858;SDS011;55864;49.238;8.092;2022-11-28T08:09:59;11.90;;;6.43;;
68858;SDS011;55864;49.238;8.092;2022-11-28T08:12:01;13.60;;;6.70;;
68858;SDS011;55864;49.238;8.092;2022-11-28T08:14:02;12.60;;;6.53;;
68858;SDS011;55864;49.238;8.092;2022-11-28T08:16:03;13.63;;;7.40;;
68858;SDS011;55864;49.238;8.092;2022-11-28T08:18:05;13.60;;;7.33;;
68858;SDS011;55864;49.238;8.092;2022-11-28T08:20:06;14.93;;;7.03;;
68858;SDS011;55864;49.238;8.092;2022-11-28T08:22:07;14.80;;;7.23;;
68858;SDS011;55864;49.238;8.092;2022-11-28T08:24:07;14.17;;;7.30;;
68858;SDS011;55864;49.238;8.092;2022-11-28T08:26:10;15.53;;;7.40;;
68858;SDS011;55864;49.238;8.092;2022-11-28T08:28:14;13.68;;;7.90;;
68858;SDS011;55864;49.238;8.092;2022-11-28T08:30:15;17.43;;;8.33;;
68858;SDS011;55864;49.238;8.092;2022-11-28T08:32:15;16.80;;;8.20;;
68858;SDS011;55864;49.238;8.092;2022-11-28T08:34:16;16.77;;;7.90;;
68858;SDS011;55864;49.238;8.092;2022-11-28T08:36:16;17.57;;;8.23;;
68858;SDS011;55864;49.238;8.092;2022-11-28T08:38:18;17.07;;;7.80;;
68858;SDS011;55864;49.238;8.092;2022-11-28T08:40:18;21.37;;;8.87;;
68858;SDS011;55864;49.238;8.092;2022-11-28T08:42:19;16.50;;;8.10;;
68858;SDS011;55864;49.238;8.092;2022-11-28T08:44:21;19.23;;;8.90;;
68858;SDS011;55864;49.238;8.092;2022-11-28T08:46:22;18.90;;;9.43;;
68858;SDS011;55864;49.238;8.092;2022-11-28T08:48:22;20.37;;;8.70;;
68858;SDS011;55864;49.238;8.092;2022-11-28T08:50:23;18.60;;;8.47;;
68858;SDS011;55864;49.238;8.092;2022-11-28T08:52:23;16.67;;;7.80;;
68858;SDS011;55864;49.238;8.092;2022-11-28T08:54:24;16.10;;;7.97;;
68858;SDS011;55864;49.238;8.092;2022-11-28T08:56:25;16.27;;;7.90;;
68858;SDS011;55864;49.238;8.092;2022-11-28T08:58:25;14.93;;;8.07;;
68858;SDS011;55864;49.238;8.092;2022-11-28T09:00:27;16.67;;;7.70;;
68858;SDS011;55864;49.238;8.092;2022-11-28T09:02:28;15.83;;;8.33;;
68858;SDS011;55864;49.238;8.092;2022-11-28T09:04:28;17.07;;;8.87;;
68858;SDS011;55864;49.238;8.092;2022-11-28T09:06:29;19.50;;;9.07;;
68858;SDS011;55864;49.238;8.092;2022-11-28T09:08:29;16.47;;;8.17;;
68858;SDS011;55864;49.238;8.092;2022-11-28T09:10:30;21.70;;;9.93;;
68858;SDS011;55864;49.238;8.092;2022-11-28T09:12:30;16.80;;;8.97;;
68858;SDS011;55864;49.238;8.092;2022-11-28T09:14:31;18.10;;;9.23;;
68858;SDS011;55864;49.238;8.092;2022-11-28T09:16:33;15.87;;;9.30;;
68858;SDS011;55864;49.238;8.092;2022-11-28T09:18:33;16.30;;;8.47;;
68858;SDS011;55864;49.238;8.092;2022-11-28T09:20:34;17.33;;;8.90;;
68858;SDS011;55864;49.238;8.092;2022-11-28T09:22:34;19.37;;;9.83;;
68858;SDS011;55864;49.238;8.092;2022-11-28T09:24:35;16.37;;;9.53;;
68858;SDS011;55864;49.238;8.092;2022-11-28T09:26:35;21.57;;;10.13;;
68858;SDS011;55864;49.238;8.092;2022-11-28T09:28:36;15.83;;;8.87;;
68858;SDS011;55864;49.238;8.092;2022-11-28T09:30:37;17.40;;;9.17;;
68858;SDS011;55864;49.238;8.092;2022-11-28T09:32:38;18.93;;;9.23;;
68858;SDS011;55864;49.238;8.092;2022-11-28T09:34:39;18.30;;;9.73;;
68858;SDS011;55864;49.238;8.092;2022-11-28T09:36:39;19.63;;;10.33;;
68858;SDS011;55864;49.238;8.092;2022-11-28T09:38:40;17.67;;;9.20;;
68858;SDS011;55864;49.238;8.092;2022-11-28T09:40:41;19.23;;;9.70;;
68858;SDS011;55864;49.238;8.092;2022-11-28T09:42:43;19.93;;;9.80;;
68858;SDS011;55864;49.238;8.092;2022-11-28T09:44:45;21.00;;;11.10;;
68858;SDS011;55864;49.238;8.092;2022-11-28T09:46:50;23.03;;;10.83;;
68858;SDS011;55864;49.238;8.092;2022-11-28T09:48:54;20.57;;;9.83;;
68858;SDS011;55864;49.238;8.092;2022-11-28T09:50:59;19.27;;;9.97;;
68858;SDS011;55864;49.238;8.092;2022-11-28T09:53:08;18.73;;;9.30;;
68858;SDS011;55864;49.238;8.092;2022-11-28T09:55:16;17.30;;;9.23;;
68858;SDS011;55864;49.238;8.092;2022-11-28T09:57:23;20.50;;;11.33;;
68858;SDS011;55864;49.238;8.092;2022-11-28T09:59:30;17.10;;;9.47;;
68858;SDS011;55864;49.238;8.092;2022-11-28T10:01:32;22.70;;;9.50;;
68858;SDS011;55864;49.238;8.092;2022-11-28T10:03:40;20.20;;;10.10;;
68858;SDS011;55864;49.238;8.092;2022-11-28T10:05:52;20.60;;;10.97;;
68858;SDS011;55864;49.238;8.092;2022-11-28T10:08:00;20.17;;;11.80;;
68858;SDS011;55864;49.238;8.092;2022-11-28T10:10:14;21.53;;;11.93;;
68858;SDS011;55864;49.238;8.092;2022-11-28T10:12:25;21.80;;;11.07;;
68858;SDS011;55864;49.238;8.092;2022-11-28T10:14:44;18.87;;;10.63;;
68858;SDS011;55864;49.238;8.092;2022-11-28T10:16:54;22.77;;;11.27;;
68858;SDS011;55864;49.238;8.092;2022-11-28T10:19:03;19.80;;;10.87;;
68858;SDS011;55864;49.238;8.092;2022-11-28T10:21:17;18.00;;;10.23;;
68858;SDS011;55864;49.238;8.092;2022-11-28T10:23:24;18.92;;;9.90;;
68858;SDS011;55864;49.238;8.092;2022-11-28T10:25:29;22.20;;;11.47;;
68858;SDS011;55864;49.238;8.092;2022-11-28T10:27:34;20.73;;;10.43;;
68858;SDS011;55864;49.238;8.092;2022-11-28T10:29:37;21.07;;;11.10;;
68858;SDS011;55864;49.238;8.092;2022-11-28T10:31:45;19.63;;;10.43;;
68858;SDS011;55864;49.238;8.092;2022-11-28T10:33:48;19.05;;;11.23;;
68858;SDS011;55864;49.238;8.092;2022-11-28T10:35:54;18.67;;;10.03;;
68858;SDS011;55864;49.238;8.092;2022-11-28T10:37:57;19.77;;;9.83;;
68858;SDS011;55864;49.238;8.092;2022-11-28T10:40:04;20.07;;;9.20;;
68858;SDS011;55864;49.238;8.092;2022-11-28T10:42:17;22.20;;;10.60;;
68858;SDS011;55864;49.238;8.092;2022-11-28T10:44:23;18.67;;;10.27;;
68858;SDS011;55864;49.238;8.092;2022-11-28T10:48:59;19.30;;;10.03;;
68858;SDS011;55864;49.238;8.092;2022-11-28T10:51:14;18.75;;;9.73;;
68858;SDS011;55864;49.238;8.092;2022-11-28T10:53:28;21.87;;;11.00;;
68858;SDS011;55864;49.238;8.092;2022-11-28T10:55:38;21.43;;;11.67;;
68858;SDS011;55864;49.238;8.092;2022-11-28T10:57:46;21.43;;;11.47;;
68858;SDS011;55864;49.238;8.092;2022-11-28T11:00:00;23.70;;;11.10;;
68858;SDS011;55864;49.238;8.092;2022-11-28T11:02:16;25.53;;;13.83;;
68858;SDS011;55864;49.238;8.092;2022-11-28T11:04:21;22.13;;;11.73;;
68858;SDS011;55864;49.238;8.092;2022-11-28T11:06:24;24.83;;;11.97;;
68858;SDS011;55864;49.238;8.092;2022-11-28T11:08:27;22.97;;;12.43;;
68858;SDS011;55864;49.238;8.092;2022-11-28T11:10:29;21.37;;;12.17;;
68858;SDS011;55864;49.238;8.092;2022-11-28T11:12:35;21.07;;;11.93;;
68858;SDS011;55864;49.238;8.092;2022-11-28T11:14:37;28.97;;;13.03;;
68858;SDS011;55864;49.238;8.092;2022-11-28T11:16:45;48.00;;;13.50;;
68858;SDS011;55864;49.238;8.092;2022-11-28T11:18:49;47.03;;;13.17;;
68858;SDS011;55864;49.238;8.092;2022-11-28T11:21:03;25.00;;;12.03;;
68858;SDS011;55864;49.238;8.092;2022-11-28T11:23:11;24.70;;;11.50;;
68858;SDS011;55864;49.238;8.092;2022-11-28T11:25:17;23.07;;;12.00;;
68858;SDS011;55864;49.238;8.092;2022-11-28T11:27:20;26.20;;;12.17;;
68858;SDS011;55864;49.238;8.092;2022-11-28T11:29:23;23.83;;;13.07;;
68858;SDS011;55864;49.238;8.092;2022-11-28T11:31:30;25.27;;;13.10;;
68858;SDS011;55864;49.238;8.092;2022-11-28T11:33:37;21.57;;;12.53;;
68858;SDS011;55864;49.238;8.092;2022-11-28T11:35:41;22.47;;;12.83;;
68858;SDS011;55864;49.238;8.092;2022-11-28T11:37:43;21.83;;;12.47;;
68858;SDS011;55864;49.238;8.092;2022-11-28T11:39:45;22.70;;;11.97;;
68858;SDS011;55864;49.238;8.092;2022-11-28T11:41:49;23.10;;;12.33;;
68858;SDS011;55864;49.238;8.092;2022-11-28T11:43:50;22.75;;;11.60;;
68858;SDS011;55864;49.238;8.092;2022-11-28T11:46:05;22.63;;;12.23;;
68858;SDS011;55864;49.238;8.092;2022-11-28T11:48:08;27.73;;;13.27;;
68858;SDS011;55864;49.238;8.092;2022-11-28T11:50:14;35.00;;;18.10;;
68858;SDS011;55864;49.238;8.092;2022-11-28T11:52:19;24.70;;;15.43;;
68858;SDS011;55864;49.238;8.092;2022-11-28T11:54:21;25.73;;;14.47;;
68858;SDS011;55864;49.238;8.092;2022-11-28T11:56:22;25.70;;;14.73;;
68858;SDS011;55864;49.238;8.092;2022-11-28T11:58:25;25.50;;;14.67;;
68858;SDS011;55864;49.238;8.092;2022-11-28T12:00:34;25.33;;;13.40;;
68858;SDS011;55864;49.238;8.092;2022-11-28T12:02:39;26.47;;;13.53;;
68858;SDS011;55864;49.238;8.092;2022-11-28T12:04:43;22.17;;;12.07;;
68858;SDS011;55864;49.238;8.092;2022-11-28T12:06:49;22.93;;;12.77;;
68858;SDS011;55864;49.238;8.092;2022-11-28T12:08:53;21.83;;;12.50;;
68858;SDS011;55864;49.238;8.092;2022-11-28T12:11:08;22.70;;;12.67;;
68858;SDS011;55864;49.238;8.092;2022-11-28T12:13:16;28.63;;;14.57;;
68858;SDS011;55864;49.238;8.092;2022-11-28T12:15:23;23.03;;;12.77;;
68858;SDS011;55864;49.238;8.092;2022-11-28T12:17:35;23.60;;;12.47;;
68858;SDS011;55864;49.238;8.092;2022-11-28T12:19:47;23.93;;;12.80;;